Time;durP1;ratioP1;P1;durP2;ratioP2;P2;SDS_P1;SDS_P2;PMS_P1;PMS_P2;Temp;Humidity;BMP_temperature;BMP_pressure;BME280_temperature;BME280_humidity;BME280_pressure;Samples;Min_cycle;Max_cycle;Signal;HPM_P1;HPM_P2
2021/08/18 00:00:26;;;;;;;2.38;1.50;;;20.50;70.50;;;;;;10379580;28;20091;-58
2021/08/18 00:05:27;;;;;;;1.90;1.30;;;20.50;70.40;;;;;;10380765;28;20040;-58
2021/08/18 00:10:29;;;;;;;1.83;1.17;;;20.50;70.50;;;;;;10377072;28;20072;-57
2021/08/18 00:15:30;;;;;;;2.17;1.30;;;20.50;70.50;;;;;;10370972;28;20053;-58
2021/08/18 00:20:32;;;;;;;1.60;1.30;;;20.40;70.40;;;;;;10348738;28;20166;-58
2021/08/18 00:25:34;;;;;;;2.53;1.25;;;20.40;70.40;;;;;;10339322;28;20463;-58
2021/08/18 00:30:35;;;;;;;2.38;1.45;;;20.40;70.50;;;;;;10338924;28;20035;-58
2021/08/18 00:35:36;;;;;;;2.53;1.33;;;20.40;70.40;;;;;;10349456;28;20367;-58
2021/08/18 00:40:36;;;;;;;1.92;1.02;;;20.40;70.40;;;;;;10363979;28;20054;-58
2021/08/18 00:45:37;;;;;;;2.00;1.40;;;20.40;70.50;;;;;;10336963;28;20069;-58
2021/08/18 00:50:38;;;;;;;1.77;1.42;;;20.40;70.50;;;;;;10338309;28;20049;-58
2021/08/18 00:55:40;;;;;;;2.05;1.20;;;20.40;70.40;;;;;;10338048;28;20022;-58
2021/08/18 01:00:41;;;;;;;1.45;1.02;;;20.40;70.50;;;;;;10337786;28;20038;-58
2021/08/18 01:05:42;;;;;;;2.05;1.10;;;20.40;70.60;;;;;;10359279;28;20049;-58
2021/08/18 01:10:43;;;;;;;1.83;1.33;;;20.40;70.60;;;;;;10376676;28;20046;-58
2021/08/18 01:15:44;;;;;;;2.03;1.40;;;20.40;70.50;;;;;;10377934;28;20025;-58
2021/08/18 01:20:44;;;;;;;2.47;1.13;;;20.40;70.50;;;;;;10344723;28;20026;-58
2021/08/18 01:25:46;;;;;;;2.20;1.42;;;20.40;70.50;;;;;;10359056;28;20038;-58
2021/08/18 01:30:46;;;;;;;2.42;1.10;;;20.40;70.50;;;;;;10347281;28;20038;-58
2021/08/18 01:35:51;;;;;;;1.40;1.05;;;20.40;70.50;;;;;;10349984;28;20113;-58
2021/08/18 01:40:53;;;;;;;3.08;1.42;;;20.40;70.50;;;;;;10335478;28;20109;-58
2021/08/18 01:45:54;;;;;;;2.25;1.38;;;20.40;70.50;;;;;;10336009;28;20065;-58
2021/08/18 01:50:57;;;;;;;3.28;1.70;;;20.40;70.50;;;;;;10357825;28;20068;-58
2021/08/18 01:56:08;;;;;;;1.73;1.13;;;20.40;70.50;;;;;;10362980;28;20037;-57
2021/08/18 02:01:14;;;;;;;1.52;1.20;;;20.40;70.50;;;;;;10346990;28;20030;-58
2021/08/18 02:06:15;;;;;;;2.13;1.42;;;20.30;70.50;;;;;;10352098;28;20057;-58
2021/08/18 02:11:16;;;;;;;1.27;1.00;;;20.40;70.60;;;;;;10375640;28;20068;-58
2021/08/18 02:16:17;;;;;;;3.97;1.20;;;20.40;70.70;;;;;;10375296;28;20434;-58
2021/08/18 02:21:17;;;;;;;1.90;1.30;;;20.40;70.70;;;;;;10338148;28;20030;-58
2021/08/18 02:26:18;;;;;;;1.88;1.40;;;20.30;70.60;;;;;;10334360;28;20117;-58
2021/08/18 02:31:19;;;;;;;1.77;1.15;;;20.30;70.50;;;;;;10334806;28;20046;-58
2021/08/18 02:36:19;;;;;;;2.90;1.40;;;20.30;70.50;;;;;;10360519;28;20034;-57
2021/08/18 02:41:20;;;;;;;2.65;1.50;;;20.30;70.50;;;;;;10374407;28;20526;-58
2021/08/18 02:46:21;;;;;;;2.65;1.40;;;20.30;70.50;;;;;;10345307;28;20117;-58
2021/08/18 02:51:21;;;;;;;3.15;1.75;;;20.30;70.50;;;;;;10335873;28;20435;-58
2021/08/18 02:56:22;;;;;;;3.30;1.23;;;20.30;70.50;;;;;;10357157;28;20030;-58
2021/08/18 03:01:23;;;;;;;1.58;1.08;;;20.30;70.50;;;;;;10332474;28;20066;-58
2021/08/18 03:06:23;;;;;;;1.55;1.23;;;20.30;70.50;;;;;;10371672;28;20429;-58
2021/08/18 03:11:24;;;;;;;2.53;1.00;;;20.30;70.50;;;;;;10372940;28;20451;-58
2021/08/18 03:16:25;;;;;;;1.63;1.10;;;20.30;70.50;;;;;;10372705;28;20033;-58
2021/08/18 03:21:26;;;;;;;1.63;1.15;;;20.30;70.50;;;;;;10355636;28;20045;-58
2021/08/18 03:26:26;;;;;;;2.28;1.15;;;20.30;70.50;;;;;;10369583;28;20064;-58
2021/08/18 03:31:27;;;;;;;2.25;1.45;;;20.30;70.50;;;;;;10370624;28;20080;-58
2021/08/18 03:36:28;;;;;;;2.13;1.17;;;20.30;70.60;;;;;;10372631;28;20029;-58
2021/08/18 03:41:29;;;;;;;1.67;1.38;;;20.30;70.60;;;;;;10372909;28;20050;-58
2021/08/18 03:46:30;;;;;;;1.42;1.05;;;20.30;70.60;;;;;;10373095;28;20080;-58
2021/08/18 03:51:31;;;;;;;1.30;0.90;;;20.30;70.60;;;;;;10358923;28;20045;-58
2021/08/18 03:56:31;;;;;;;1.75;1.20;;;20.30;70.50;;;;;;10358997;28;20042;-58
2021/08/18 04:01:32;;;;;;;1.90;1.38;;;20.20;70.50;;;;;;10338856;28;20100;-58
2021/08/18 04:06:33;;;;;;;1.55;1.20;;;20.30;70.50;;;;;;10332165;28;20035;-58
2021/08/18 04:11:33;;;;;;;3.08;1.65;;;20.20;70.40;;;;;;10331858;28;20084;-58
2021/08/18 04:16:34;;;;;;;3.47;2.13;;;20.20;71.10;;;;;;10332027;28;20451;-58
2021/08/18 04:21:35;;;;;;;3.95;3.15;;;20.20;70.50;;;;;;10340252;28;20438;-58
2021/08/18 04:26:35;;;;;;;3.92;3.20;;;20.20;70.50;;;;;;10340532;28;20054;-58
2021/08/18 04:31:36;;;;;;;5.68;4.03;;;20.20;70.50;;;;;;10373718;28;20034;-58
2021/08/18 04:36:37;;;;;;;4.40;3.42;;;20.20;70.50;;;;;;10341952;28;20114;-58
2021/08/18 04:41:37;;;;;;;6.10;4.65;;;20.20;70.50;;;;;;10354937;28;20081;-58
2021/08/18 04:46:38;;;;;;;6.13;5.03;;;20.20;70.60;;;;;;10355345;28;20030;-56
2021/08/18 04:51:39;;;;;;;5.72;4.60;;;20.20;70.60;;;;;;10353173;28;20550;-58
2021/08/18 04:56:39;;;;;;;7.85;7.05;;;20.20;70.60;;;;;;10350743;28;20080;-58
2021/08/18 05:01:40;;;;;;;16.98;14.50;;;20.20;70.80;;;;;;10358494;28;20061;-58
2021/08/18 05:06:40;;;;;;;12.98;9.93;;;20.20;70.80;;;;;;10364844;28;20042;-58
2021/08/18 05:11:41;;;;;;;6.45;5.35;;;20.20;70.80;;;;;;10377979;28;20078;-58
2021/08/18 05:16:42;;;;;;;19.13;17.15;;;20.20;70.70;;;;;;10366035;28;20157;-58
2021/08/18 05:21:43;;;;;;;9.82;7.85;;;20.20;71.80;;;;;;10350086;28;20021;-59
2021/08/18 05:26:43;;;;;;;15.15;7.68;;;20.30;72.00;;;;;;10349569;28;20026;-58
2021/08/18 05:31:44;;;;;;;11.27;8.30;;;20.30;72.70;;;;;;10338299;28;20117;-59
2021/08/18 05:36:45;;;;;;;11.85;8.57;;;20.40;72.30;;;;;;10335378;28;20042;-58
2021/08/18 05:41:45;;;;;;;15.38;8.50;;;20.40;72.00;;;;;;10335961;28;20048;-58
2021/08/18 05:46:46;;;;;;;9.88;7.85;;;20.40;72.20;;;;;;10336207;28;20030;-60
2021/08/18 05:51:51;;;;;;;11.32;7.38;;;20.50;72.60;;;;;;10334710;28;20038;-58
2021/08/18 05:56:52;;;;;;;10.85;7.10;;;20.50;72.40;;;;;;10352551;28;20034;-59
2021/08/18 06:01:52;;;;;;;12.20;8.15;;;20.50;72.30;;;;;;10352325;28;20478;-56
2021/08/18 06:06:54;;;;;;;14.15;9.45;;;20.50;72.00;;;;;;10368623;28;20121;-56
2021/08/18 06:11:55;;;;;;;9.07;7.38;;;20.50;72.40;;;;;;10374870;28;20386;-57
2021/08/18 06:16:56;;;;;;;14.63;7.40;;;20.50;72.60;;;;;;10371410;28;20112;-56
2021/08/18 06:21:59;;;;;;;17.00;7.43;;;20.50;72.80;;;;;;10359279;28;20153;-58
2021/08/18 06:27:00;;;;;;;11.88;6.25;;;20.50;72.80;;;;;;10348946;28;20084;-58
2021/08/18 06:32:05;;;;;;;11.80;7.03;;;20.50;72.90;;;;;;10352994;28;20554;-58
2021/08/18 06:37:06;;;;;;;13.43;6.80;;;20.50;72.70;;;;;;10350052;28;20026;-57
2021/08/18 06:42:07;;;;;;;13.43;6.60;;;20.50;72.90;;;;;;10346364;28;20121;-53
2021/08/18 06:47:08;;;;;;;12.60;5.97;;;20.50;73.00;;;;;;10346500;28;20027;-57
2021/08/18 06:52:10;;;;;;;9.18;6.07;;;20.50;72.80;;;;;;10361739;28;20037;-57
2021/08/18 06:57:11;;;;;;;14.57;6.00;;;20.50;73.20;;;;;;10349783;28;20026;-56
2021/08/18 07:02:11;;;;;;;12.35;5.68;;;20.50;72.90;;;;;;10337843;28;20367;-56
2021/08/18 07:07:12;;;;;;;16.90;7.53;;;20.50;73.00;;;;;;10344287;28;20053;-54
2021/08/18 07:12:13;;;;;;;14.63;5.57;;;20.50;73.00;;;;;;10345956;28;20144;-55
2021/08/18 07:17:13;;;;;;;16.80;6.65;;;20.50;72.90;;;;;;10346020;28;20502;-55
2021/08/18 07:22:14;;;;;;;22.00;7.82;;;20.50;73.00;;;;;;10343644;28;20054;-55
2021/08/18 07:27:15;;;;;;;11.73;6.47;;;20.50;73.10;;;;;;10345904;28;20065;-55
2021/08/18 07:32:15;;;;;;;18.08;5.97;;;20.50;73.10;;;;;;10348516;28;20030;-55
2021/08/18 07:37:17;;;;;;;15.25;5.78;;;20.40;73.20;;;;;;10365758;28;20030;-53
2021/08/18 07:42:18;;;;;;;11.38;5.35;;;20.50;73.10;;;;;;10342495;28;20046;-51
2021/08/18 07:47:19;;;;;;;13.30;4.80;;;20.50;73.00;;;;;;10365369;28;20054;-56
2021/08/18 07:52:19;;;;;;;12.80;5.10;;;20.50;73.00;;;;;;10353485;28;20105;-55
2021/08/18 07:57:20;;;;;;;13.35;5.18;;;20.40;73.50;;;;;;10343370;28;20122;-55
2021/08/18 08:02:22;;;;;;;11.73;5.10;;;20.40;72.90;;;;;;10355514;28;20027;-56
2021/08/18 08:07:23;;;;;;;15.60;5.38;;;20.40;73.00;;;;;;10349392;28;20030;-55
2021/08/18 08:12:24;;;;;;;10.38;5.25;;;20.40;72.90;;;;;;10377617;28;20030;-55
2021/08/18 08:17:25;;;;;;;8.55;5.55;;;20.40;72.80;;;;;;10365326;28;20415;-56
2021/08/18 08:22:26;;;;;;;9.52;5.05;;;20.40;72.80;;;;;;10378905;28;20085;-54
2021/08/18 08:27:26;;;;;;;9.55;4.80;;;20.40;72.80;;;;;;10337288;28;20038;-55
2021/08/18 08:32:27;;;;;;;6.82;4.68;;;20.40;72.70;;;;;;10337691;28;20069;-57
2021/08/18 08:37:28;;;;;;;8.20;4.47;;;20.40;72.70;;;;;;10367934;28;20058;-55
2021/08/18 08:42:30;;;;;;;7.70;4.63;;;20.40;72.70;;;;;;10374311;28;20076;-56
2021/08/18 08:47:35;;;;;;;8.75;4.57;;;20.40;72.60;;;;;;10350759;28;20044;-56
2021/08/18 08:52:36;;;;;;;10.77;4.82;;;20.40;72.60;;;;;;10366575;28;20030;-55
2021/08/18 08:57:57;;;;;;;6.88;4.10;;;20.40;72.70;;;;;;10351046;28;20561;-55
2021/08/18 09:03:10;;;;;;;6.25;4.53;;;20.40;72.50;;;;;;10366878;28;20501;-54
2021/08/18 09:08:18;;;;;;;9.23;4.30;;;20.40;72.50;;;;;;10369529;28;20034;-56
2021/08/18 09:13:19;;;;;;;8.63;4.20;;;20.40;72.60;;;;;;10377599;28;20030;-56
2021/08/18 09:18:51;;;;;;;7.22;3.85;;;20.40;72.60;;;;;;10370724;28;20053;-54
2021/08/18 09:23:58;;;;;;;5.53;3.72;;;20.40;72.40;;;;;;10347473;28;20057;-55
2021/08/18 09:28:58;;;;;;;5.55;3.80;;;20.40;72.60;;;;;;10335297;28;20117;-56
2021/08/18 09:33:59;;;;;;;6.70;3.88;;;20.30;72.50;;;;;;10349556;28;20087;-55
2021/08/18 09:39:35;;;;;;;6.25;3.97;;;20.40;72.50;;;;;;10350295;28;20494;-55
2021/08/18 09:44:36;;;;;;;6.40;4.00;;;20.40;72.30;;;;;;10297255;28;20188;-56
2021/08/18 09:49:37;;;;;;;4.80;3.58;;;20.40;72.50;;;;;;10358556;28;20038;-56
2021/08/18 09:54:37;;;;;;;5.53;4.28;;;20.40;72.50;;;;;;10353988;28;20113;-55
2021/08/18 09:59:43;;;;;;;6.22;3.60;;;20.40;73.00;;;;;;10347471;28;20037;-54
2021/08/18 10:04:44;;;;;;;6.57;3.58;;;20.40;72.50;;;;;;10346395;28;20030;-54
2021/08/18 10:09:45;;;;;;;7.07;4.75;;;20.50;72.70;;;;;;10342212;28;20076;-55
2021/08/18 10:14:48;;;;;;;7.75;3.97;;;20.50;72.50;;;;;;10334344;28;20121;-54
2021/08/18 10:19:53;;;;;;;6.30;4.50;;;20.50;72.60;;;;;;10347882;28;20041;-54
2021/08/18 10:24:55;;;;;;;5.35;3.92;;;20.50;72.50;;;;;;10357292;28;20038;-52
2021/08/18 10:30:20;;;;;;;4.43;4.03;;;20.40;72.40;;;;;;10350952;28;20034;-54
2021/08/18 10:35:35;;;;;;;7.97;4.57;;;20.50;72.40;;;;;;10344361;28;20034;-53
2021/08/18 10:40:36;;;;;;;5.97;4.03;;;20.50;72.50;;;;;;10374144;28;20050;-52
2021/08/18 10:45:37;;;;;;;5.65;4.05;;;20.40;72.60;;;;;;10364100;28;20534;-54
2021/08/18 10:50:41;;;;;;;5.07;4.25;;;20.40;72.60;;;;;;10351052;28;20045;-55
2021/08/18 10:55:42;;;;;;;8.13;3.72;;;20.40;72.60;;;;;;10352693;28;20022;-54
2021/08/18 11:00:44;;;;;;;6.18;4.35;;;20.40;72.70;;;;;;10346476;28;20034;-55
2021/08/18 11:05:53;;;;;;;5.72;4.47;;;20.40;72.80;;;;;;10374319;28;20125;-54
2021/08/18 11:10:53;;;;;;;6.45;3.92;;;20.40;72.60;;;;;;10344961;28;20038;-54
2021/08/18 11:15:55;;;;;;;11.10;4.70;;;20.40;72.70;;;;;;10343087;28;20034;-56
2021/08/18 11:20:56;;;;;;;7.22;4.82;;;20.50;72.90;;;;;;10334354;28;20037;-55
2021/08/18 11:26:00;;;;;;;6.35;4.60;;;20.50;72.90;;;;;;10362978;28;20382;-55
2021/08/18 11:31:07;;;;;;;11.05;4.43;;;20.50;73.00;;;;;;10347608;28;20042;-56
2021/08/18 11:36:16;;;;;;;12.02;4.90;;;20.50;73.10;;;;;;10363819;28;20037;-55
2021/08/18 11:41:17;;;;;;;12.45;5.20;;;20.50;72.80;;;;;;10357161;28;20164;-56
2021/08/18 11:46:25;;;;;;;10.95;5.00;;;20.50;73.10;;;;;;10366486;28;20034;-56
2021/08/18 11:51:26;;;;;;;11.27;5.57;;;20.50;73.00;;;;;;10367026;28;20030;-53
2021/08/18 11:56:29;;;;;;;21.33;5.35;;;20.50;73.20;;;;;;10341151;28;20027;-54
2021/08/18 12:01:31;;;;;;;17.77;4.93;;;20.50;73.10;;;;;;10338522;28;20034;-56
2021/08/18 12:06:41;;;;;;;15.13;6.07;;;20.50;73.40;;;;;;10345536;28;20038;-52
2021/08/18 12:11:42;;;;;;;20.60;7.47;;;20.60;73.10;;;;;;10351159;28;20035;-53
2021/08/18 12:16:55;;;;;;;26.67;6.80;;;20.50;73.30;;;;;;10339951;28;20050;-55
2021/08/18 12:22:24;;;;;;;25.40;6.35;;;20.60;73.50;;;;;;10345996;28;20363;-55
2021/08/18 12:27:27;;;;;;;24.38;6.10;;;20.70;73.10;;;;;;10338310;28;20037;-56
2021/08/18 12:32:27;;;;;;;19.35;4.97;;;20.80;73.00;;;;;;10344953;28;20081;-55
2021/08/18 12:37:31;;;;;;;19.63;6.40;;;20.70;72.80;;;;;;10362724;28;20348;-56
2021/08/18 12:43:01;;;;;;;19.63;6.68;;;20.70;73.10;;;;;;10376933;28;20061;-55
2021/08/18 12:48:02;;;;;;;20.88;6.43;;;20.70;73.10;;;;;;10364468;28;20054;-53
2021/08/18 12:53:05;;;;;;;13.50;5.32;;;20.60;73.10;;;;;;10364563;28;20064;-55
2021/08/18 12:58:22;;;;;;;12.40;5.15;;;20.50;73.00;;;;;;10371341;28;20034;-54
2021/08/18 13:03:23;;;;;;;11.05;5.00;;;20.50;73.00;;;;;;10359956;28;20117;-55
2021/08/18 13:08:24;;;;;;;8.13;5.00;;;20.50;73.30;;;;;;10347984;28;20573;-56
2021/08/18 13:13:24;;;;;;;11.45;5.22;;;20.60;73.30;;;;;;10359440;28;20461;-55
2021/08/18 13:18:25;;;;;;;11.60;5.43;;;20.50;73.10;;;;;;10342491;28;20046;-56
2021/08/18 13:23:26;;;;;;;12.07;5.75;;;20.60;73.40;;;;;;10361962;28;20062;-55
2021/08/18 13:28:27;;;;;;;11.75;5.47;;;20.60;73.10;;;;;;10354146;28;20034;-56
2021/08/18 13:33:28;;;;;;;13.02;5.97;;;20.50;73.00;;;;;;10358837;28;20025;-56
2021/08/18 13:38:29;;;;;;;11.35;4.85;;;20.50;73.00;;;;;;10357393;28;20400;-56
2021/08/18 13:43:30;;;;;;;13.10;5.38;;;20.50;72.90;;;;;;10345565;28;20126;-54
2021/08/18 13:48:31;;;;;;;7.78;4.97;;;20.50;73.00;;;;;;10343407;28;20442;-55
2021/08/18 13:53:32;;;;;;;9.25;4.97;;;20.50;72.90;;;;;;10355027;28;20376;-55
2021/08/18 13:58:33;;;;;;;11.60;5.05;;;20.50;72.80;;;;;;10362789;28;20101;-55
2021/08/18 14:03:34;;;;;;;10.00;5.00;;;20.50;72.80;;;;;;10352061;28;20034;-55
2021/08/18 14:08:36;;;;;;;9.60;5.28;;;20.50;72.60;;;;;;10343356;28;20043;-56
2021/08/18 14:13:37;;;;;;;7.80;4.80;;;20.50;72.60;;;;;;10346238;28;20026;-56
2021/08/18 14:18:39;;;;;;;10.38;5.00;;;20.60;73.20;;;;;;10342327;28;20517;-56
2021/08/18 14:23:40;;;;;;;14.88;5.75;;;20.60;73.10;;;;;;10375535;28;20061;-56
2021/08/18 14:28:40;;;;;;;16.38;5.72;;;20.60;73.00;;;;;;10360128;28;20469;-56
2021/08/18 14:33:41;;;;;;;14.98;5.13;;;20.60;72.90;;;;;;10348902;28;20041;-55
2021/08/18 14:38:42;;;;;;;18.50;4.20;;;20.60;73.10;;;;;;10335826;28;20064;-56
2021/08/18 14:43:42;;;;;;;19.90;4.28;;;20.60;73.30;;;;;;10354991;28;20083;-55
2021/08/18 14:48:43;;;;;;;10.98;4.80;;;20.60;73.50;;;;;;10351691;28;20160;-55
2021/08/18 14:53:45;;;;;;;16.25;6.22;;;20.70;73.60;;;;;;10343924;28;20029;-55
2021/08/18 14:58:46;;;;;;;14.32;4.97;;;20.70;73.60;;;;;;10333556;28;20037;-56
2021/08/18 15:03:47;;;;;;;13.60;4.78;;;20.70;73.70;;;;;;10337855;28;20509;-55
2021/08/18 15:08:48;;;;;;;10.85;4.53;;;20.70;73.80;;;;;;10330975;28;20118;-53
2021/08/18 15:13:49;;;;;;;16.33;5.20;;;20.70;73.90;;;;;;10344979;28;20419;-55
2021/08/18 15:18:50;;;;;;;18.52;4.93;;;20.70;73.70;;;;;;10352843;28;20100;-56
2021/08/18 15:23:50;;;;;;;16.70;5.05;;;20.70;73.70;;;;;;10357348;28;20026;-56
2021/08/18 15:28:51;;;;;;;9.77;4.30;;;20.70;73.60;;;;;;10361791;28;20042;-56
2021/08/18 15:33:52;;;;;;;8.93;4.68;;;20.70;73.60;;;;;;10342868;28;20030;-51
2021/08/18 15:38:53;;;;;;;11.38;4.88;;;20.70;73.60;;;;;;10356485;28;20085;-50
2021/08/18 15:43:54;;;;;;;11.60;5.10;;;20.70;72.80;;;;;;10340563;28;20490;-50
2021/08/18 15:48:55;;;;;;;13.35;4.80;;;20.80;72.70;;;;;;10361689;28;20164;-52
2021/08/18 15:53:57;;;;;;;9.85;4.53;;;20.70;72.20;;;;;;10341941;28;20126;-51
2021/08/18 15:58:58;;;;;;;24.88;14.00;;;20.70;72.00;;;;;;10346970;28;20037;-52
2021/08/18 16:03:59;;;;;;;17.48;9.55;;;20.70;74.70;;;;;;10354679;28;20036;-52
2021/08/18 16:08:59;;;;;;;25.00;14.98;;;20.70;73.50;;;;;;10349213;28;20046;-53
2021/08/18 16:14:00;;;;;;;18.88;10.90;;;20.80;74.60;;;;;;10346880;28;20119;-53
2021/08/18 16:19:01;;;;;;;11.57;7.22;;;20.80;76.80;;;;;;10334457;28;20434;-57
2021/08/18 16:24:02;;;;;;;12.32;6.93;;;20.80;75.30;;;;;;10338271;28;20042;-57
2021/08/18 16:29:05;;;;;;;10.15;5.15;;;20.90;75.00;;;;;;10339097;28;20038;-57
2021/08/18 16:34:06;;;;;;;14.43;5.43;;;20.90;74.10;;;;;;10348965;28;20044;-55
2021/08/18 16:39:06;;;;;;;10.82;4.50;;;20.90;73.70;;;;;;10354949;28;20392;-57
2021/08/18 16:44:07;;;;;;;9.68;4.70;;;21.00;73.40;;;;;;10338274;28;20521;-55
2021/08/18 16:49:08;;;;;;;6.95;4.95;;;20.90;72.80;;;;;;10338361;28;20033;-55
2021/08/18 16:54:09;;;;;;;15.35;4.00;;;20.90;72.40;;;;;;10362985;28;20045;-57
2021/08/18 16:59:09;;;;;;;10.35;3.88;;;20.90;72.30;;;;;;10356499;28;20104;-57
2021/08/18 17:04:10;;;;;;;7.40;4.22;;;21.00;72.40;;;;;;10360550;28;20474;-54
2021/08/18 17:09:11;;;;;;;7.00;4.18;;;20.90;72.20;;;;;;10337794;28;20072;-55
2021/08/18 17:14:11;;;;;;;14.00;4.32;;;21.00;72.80;;;;;;10362001;28;20018;-56
2021/08/18 17:19:12;;;;;;;11.07;4.25;;;21.00;73.20;;;;;;10373270;28;20095;-56
2021/08/18 17:24:13;;;;;;;12.90;3.70;;;21.00;74.60;;;;;;10370135;28;20026;-55
2021/08/18 17:29:14;;;;;;;6.90;3.88;;;21.00;73.70;;;;;;10358553;28;20065;-56
2021/08/18 17:34:15;;;;;;;6.15;3.25;;;21.00;74.00;;;;;;10345072;28;20054;-56
2021/08/18 17:39:16;;;;;;;8.02;4.18;;;21.00;74.00;;;;;;10359624;28;20383;-54
2021/08/18 17:44:17;;;;;;;7.10;3.95;;;21.00;73.70;;;;;;10369744;28;20109;-56
2021/08/18 17:49:18;;;;;;;8.55;4.20;;;21.00;73.80;;;;;;10348494;28;20409;-57
2021/08/18 17:54:19;;;;;;;6.28;3.75;;;21.00;74.10;;;;;;10355958;28;20555;-55
2021/08/18 17:59:19;;;;;;;8.23;4.03;;;21.00;73.80;;;;;;10351958;28;20026;-57
2021/08/18 18:04:21;;;;;;;9.25;3.47;;;20.90;73.70;;;;;;10352069;28;20050;-57
2021/08/18 18:09:22;;;;;;;5.72;3.95;;;20.90;73.80;;;;;;10347456;28;20030;-56
2021/08/18 18:14:22;;;;;;;7.45;4.10;;;20.90;73.90;;;;;;10343692;28;20129;-57
2021/08/18 18:19:23;;;;;;;6.03;3.83;;;20.90;73.80;;;;;;10345269;28;20518;-57
2021/08/18 18:24:24;;;;;;;5.38;2.95;;;20.90;73.90;;;;;;10339644;28;20118;-56
2021/08/18 18:29:25;;;;;;;6.68;3.25;;;20.90;74.00;;;;;;10335860;28;20065;-57
2021/08/18 18:34:26;;;;;;;8.02;3.28;;;20.80;73.70;;;;;;10353148;28;20037;-57
2021/08/18 18:39:26;;;;;;;7.90;3.50;;;20.80;73.70;;;;;;10355185;28;20065;-55
2021/08/18 18:44:28;;;;;;;5.20;3.67;;;20.80;73.80;;;;;;10358724;28;20042;-56
2021/08/18 18:49:30;;;;;;;5.47;3.40;;;20.80;73.90;;;;;;10358582;28;20041;-56
2021/08/18 18:54:31;;;;;;;5.07;3.15;;;20.80;73.90;;;;;;10357265;28;20029;-56
2021/08/18 18:59:33;;;;;;;5.22;2.97;;;20.80;73.90;;;;;;10348358;28;20030;-56
2021/08/18 19:04:34;;;;;;;5.80;3.83;;;20.80;73.80;;;;;;10336532;28;20033;-56
2021/08/18 19:09:34;;;;;;;5.07;3.28;;;20.80;73.90;;;;;;10355958;28;20026;-56
2021/08/18 19:14:35;;;;;;;4.88;3.70;;;20.80;73.90;;;;;;10339560;28;20038;-56
2021/08/18 19:19:36;;;;;;;5.13;3.28;;;20.80;74.10;;;;;;10350656;28;20034;-56
2021/08/18 19:24:37;;;;;;;6.88;3.55;;;20.80;73.90;;;;;;10347204;28;20045;-56
2021/08/18 19:29:38;;;;;;;6.97;3.65;;;20.80;73.90;;;;;;10341130;28;20132;-56
2021/08/18 19:34:38;;;;;;;7.45;3.45;;;20.80;73.80;;;;;;10344866;28;20371;-56
2021/08/18 19:39:39;;;;;;;7.10;3.47;;;20.80;73.80;;;;;;10344221;28;20062;-54
2021/08/18 19:44:40;;;;;;;6.10;4.07;;;20.80;73.70;;;;;;10345801;28;20034;-56
2021/08/18 19:49:40;;;;;;;5.28;3.42;;;20.80;73.70;;;;;;10348282;28;20483;-56
2021/08/18 19:54:41;;;;;;;5.78;3.38;;;20.80;73.70;;;;;;10366284;28;20501;-56
2021/08/18 19:59:42;;;;;;;4.80;3.55;;;20.70;73.60;;;;;;10338239;28;20034;-56
2021/08/18 20:04:43;;;;;;;4.18;3.42;;;20.80;73.60;;;;;;10367355;28;20037;-55
2021/08/18 20:09:46;;;;;;;5.30;3.55;;;20.70;73.50;;;;;;10351325;28;20049;-56
2021/08/18 20:14:47;;;;;;;4.78;3.38;;;20.70;73.50;;;;;;10339816;28;20019;-56
2021/08/18 20:19:47;;;;;;;4.22;3.00;;;20.70;73.50;;;;;;10345009;28;20113;-56
2021/08/18 20:24:48;;;;;;;4.68;3.38;;;20.70;73.40;;;;;;10340006;28;20038;-56
2021/08/18 20:29:49;;;;;;;4.57;3.65;;;20.70;73.40;;;;;;10339531;28;20121;-56
2021/08/18 20:34:50;;;;;;;4.55;3.40;;;20.70;73.40;;;;;;10338231;28;20027;-56
2021/08/18 20:39:51;;;;;;;5.72;3.78;;;20.70;73.30;;;;;;10345107;28;20076;-56
2021/08/18 20:44:52;;;;;;;5.15;3.47;;;20.70;73.30;;;;;;10378041;28;20033;-56
2021/08/18 20:49:53;;;;;;;5.45;3.42;;;20.70;73.30;;;;;;10349960;28;20026;-56
2021/08/18 20:54:54;;;;;;;5.82;3.95;;;20.70;73.30;;;;;;10369074;28;20057;-56
2021/08/18 20:59:54;;;;;;;6.40;3.80;;;20.70;73.30;;;;;;10377852;28;20541;-56
2021/08/18 21:04:55;;;;;;;5.80;3.10;;;20.70;73.30;;;;;;10374789;28;20061;-56
2021/08/18 21:09:56;;;;;;;4.47;3.47;;;20.70;73.30;;;;;;10354659;28;20073;-56
2021/08/18 21:14:56;;;;;;;5.10;3.83;;;20.70;73.30;;;;;;10337898;28;20102;-56
2021/08/18 21:19:57;;;;;;;4.88;3.70;;;20.70;73.30;;;;;;10363253;28;20449;-56
2021/08/18 21:24:58;;;;;;;4.55;3.40;;;20.70;73.30;;;;;;10377352;28;20065;-56
2021/08/18 21:29:59;;;;;;;4.60;3.30;;;20.70;73.30;;;;;;10346007;28;20041;-56
2021/08/18 21:35:00;;;;;;;4.90;3.67;;;20.70;73.30;;;;;;10337055;28;20069;-56
2021/08/18 21:40:00;;;;;;;7.07;3.55;;;20.60;73.20;;;;;;10349521;28;20051;-56
2021/08/18 21:45:01;;;;;;;4.28;3.53;;;20.70;73.20;;;;;;10367888;28;20036;-56
2021/08/18 21:50:03;;;;;;;5.72;3.55;;;20.70;73.20;;;;;;10354966;28;20113;-56
2021/08/18 21:55:04;;;;;;;4.68;3.65;;;20.70;73.20;;;;;;10340218;28;20034;-56
2021/08/18 22:00:13;;;;;;;5.07;3.58;;;20.60;73.20;;;;;;10365204;28;20029;-56
2021/08/18 22:05:15;;;;;;;4.80;3.67;;;20.60;73.10;;;;;;10351488;28;20465;-56
2021/08/18 22:10:16;;;;;;;4.28;3.25;;;20.60;73.10;;;;;;10336163;28;20471;-56
2021/08/18 22:15:18;;;;;;;4.47;3.25;;;20.60;73.10;;;;;;10333476;28;20077;-56
2021/08/18 22:20:19;;;;;;;4.88;3.50;;;20.60;73.70;;;;;;10342050;28;20038;-55
2021/08/18 22:25:19;;;;;;;6.82;3.72;;;20.60;73.10;;;;;;10341787;28;20112;-56
2021/08/18 22:30:20;;;;;;;3.85;3.13;;;20.60;73.10;;;;;;10350837;28;20117;-54
2021/08/18 22:35:23;;;;;;;3.83;2.80;;;20.60;73.10;;;;;;10369513;28;20095;-56
2021/08/18 22:40:23;;;;;;;4.57;3.25;;;20.60;73.10;;;;;;10347273;28;20080;-56
2021/08/18 22:45:24;;;;;;;4.22;3.53;;;20.60;73.10;;;;;;10355957;28;20112;-56
2021/08/18 22:50:25;;;;;;;5.90;4.35;;;20.60;73.00;;;;;;10363164;28;20509;-56
2021/08/18 22:55:26;;;;;;;5.72;3.70;;;20.60;73.00;;;;;;10359990;28;20117;-56
2021/08/18 23:00:27;;;;;;;4.70;3.80;;;20.60;73.10;;;;;;10360235;28;20049;-56
2021/08/18 23:05:28;;;;;;;4.38;3.55;;;20.60;73.00;;;;;;10356157;28;20389;-56
2021/08/18 23:10:29;;;;;;;4.75;3.40;;;20.60;73.00;;;;;;10360532;28;20117;-56
2021/08/18 23:15:31;;;;;;;4.57;3.78;;;20.60;73.00;;;;;;10356111;28;20035;-56
2021/08/18 23:20:31;;;;;;;5.25;3.92;;;20.60;73.00;;;;;;10339881;28;20142;-56
2021/08/18 23:25:32;;;;;;;6.53;3.90;;;20.50;72.90;;;;;;10332079;28;20113;-56
2021/08/18 23:30:33;;;;;;;6.78;3.65;;;20.50;72.90;;;;;;10331571;28;20046;-56
2021/08/18 23:35:34;;;;;;;4.60;3.53;;;20.60;72.90;;;;;;10347951;28;20037;-56
2021/08/18 23:40:35;;;;;;;4.57;3.53;;;20.50;72.90;;;;;;10344916;28;20073;-56
2021/08/18 23:45:36;;;;;;;4.20;3.50;;;20.60;72.90;;;;;;10348872;28;20034;-56
2021/08/18 23:50:37;;;;;;;4.70;3.75;;;20.50;72.80;;;;;;10361479;28;20422;-55
2021/08/18 23:55:37;;;;;;;5.68;4.03;;;20.50;72.80;;;;;;10356848;28;20039;-56
